createdAt,value
2022-08-02T00:06:51.703Z,100.00
2022-08-02T00:21:53.736Z,100.00
2022-08-02T00:36:55.739Z,100.00
2022-08-02T00:51:57.719Z,100.00
2022-08-02T01:07:01.547Z,100.00
2022-08-02T01:22:09.440Z,100.00
2022-08-02T01:37:29.389Z,100.00
2022-08-02T01:52:35.841Z,100.00
2022-08-02T02:07:39.250Z,100.00
2022-08-02T02:22:41.826Z,100.00
2022-08-02T02:37:46.214Z,100.00
2022-08-02T02:52:48.729Z,100.00
2022-08-02T03:07:50.643Z,100.00
2022-08-02T03:22:52.717Z,100.00
2022-08-02T03:37:57.928Z,100.00
2022-08-02T03:53:01.625Z,100.00
2022-08-02T04:08:35.059Z,100.00
2022-08-02T04:23:27.337Z,100.00
2022-08-02T04:38:29.377Z,100.00
2022-08-02T04:53:31.293Z,100.00
2022-08-02T05:08:33.315Z,100.00
2022-08-02T05:23:35.334Z,100.00
2022-08-02T05:38:38.123Z,100.00
2022-08-02T05:53:46.071Z,99.59
2022-08-02T06:08:57.397Z,100.00
2022-08-02T06:23:59.693Z,100.00
2022-08-02T06:39:09.294Z,89.04
2022-08-02T06:54:11.480Z,82.82
2022-08-02T07:09:21.804Z,72.49
2022-08-02T07:24:24.133Z,79.80
2022-08-02T07:39:27.836Z,65.26
2022-08-02T07:54:32.290Z,66.96
2022-08-02T08:09:34.986Z,67.96
2022-08-02T08:24:36.893Z,62.75
2022-08-02T08:39:56.159Z,58.52
2022-08-02T08:55:00.915Z,67.21
2022-08-02T09:10:22.875Z,72.30
2022-08-02T09:25:25.176Z,81.75
2022-08-02T09:40:38.745Z,69.65
2022-08-02T09:55:42.387Z,83.75
2022-08-02T10:10:45.391Z,84.92
2022-08-02T10:25:48.694Z,86.75
2022-08-02T10:40:55.540Z,87.36
2022-08-02T10:56:04.789Z,77.23
2022-08-02T11:11:09.924Z,78.50
2022-08-02T11:26:36.332Z,68.46
2022-08-02T11:41:48.159Z,80.48
2022-08-02T11:56:50.157Z,79.74
2022-08-02T12:11:52.390Z,83.62
2022-08-02T12:26:57.491Z,81.49
2022-08-02T12:42:00.493Z,89.51
2022-08-02T12:57:15.604Z,82.90
2022-08-02T13:12:17.991Z,87.12
2022-08-02T13:27:21.261Z,84.45
2022-08-02T13:42:23.444Z,91.73
2022-08-02T13:57:25.403Z,91.47
2022-08-02T14:12:27.313Z,74.35
2022-08-02T14:28:13.295Z,73.39
2022-08-02T14:43:35.388Z,72.67
2022-08-02T14:58:37.339Z,71.95
2022-08-02T15:13:45.728Z,77.48
2022-08-02T15:28:55.507Z,87.26
2022-08-02T15:44:00.217Z,88.76
2022-08-02T15:59:03.539Z,91.13
2022-08-02T16:14:05.944Z,92.21
2022-08-02T16:29:08.033Z,94.22
2022-08-02T16:44:11.053Z,95.95
2022-08-02T16:59:15.847Z,94.53
2022-08-02T17:14:17.748Z,97.29
2022-08-02T17:29:19.747Z,98.64
2022-08-02T17:44:37.566Z,91.80
2022-08-02T17:59:42.248Z,100.00
2022-08-02T18:14:48.929Z,98.81
2022-08-02T18:30:00.006Z,100.00
2022-08-02T18:45:07.420Z,100.00
2022-08-02T19:00:10.832Z,100.00
2022-08-02T19:15:17.273Z,100.00
2022-08-02T19:30:19.696Z,100.00
2022-08-02T19:45:48.431Z,100.00
2022-08-02T20:00:47.035Z,100.00
2022-08-02T20:15:56.030Z,100.00
2022-08-02T20:30:58.806Z,100.00
2022-08-02T20:46:09.682Z,100.00
2022-08-02T21:01:12.283Z,100.00
2022-08-02T21:16:18.278Z,100.00
2022-08-02T21:31:21.444Z,100.00
2022-08-02T21:46:23.705Z,100.00
2022-08-02T22:01:29.822Z,100.00
2022-08-02T22:16:33.420Z,100.00
2022-08-02T22:31:41.911Z,100.00
2022-08-02T22:46:44.639Z,100.00
2022-08-02T23:01:46.619Z,100.00
2022-08-02T23:17:07.213Z,100.00
2022-08-02T23:32:09.368Z,100.00
2022-08-02T23:47:11.489Z,100.00
